sensor_id;sensor_type;location;lat;lon;timestamp;pressure;altitude;pressure_sealevel;temperature;humidity
5879;BME280;2965;42.640;23.370;2023-06-14T04:02:24;94176.03;;;17.80;100.00
5879;BME280;2965;42.640;23.370;2023-06-14T04:04:50;94188.38;;;17.63;100.00
5879;BME280;2965;42.640;23.370;2023-06-14T04:07:17;94173.06;;;17.65;100.00
5879;BME280;2965;42.640;23.370;2023-06-14T04:09:46;94180.75;;;17.78;100.00
5879;BME280;2965;42.640;23.370;2023-06-14T04:12:12;94175.31;;;17.85;100.00
5879;BME280;2965;42.640;23.370;2023-06-14T04:14:39;94174.13;;;17.93;100.00
5879;BME280;2965;42.640;23.370;2023-06-14T04:17:04;94179.63;;;18.03;100.00
5879;BME280;2965;42.640;23.370;2023-06-14T04:19:30;94183.47;;;17.83;100.00
5879;BME280;2965;42.640;23.370;2023-06-14T04:21:55;94185.56;;;17.81;100.00
5879;BME280;2965;42.640;23.370;2023-06-14T04:24:21;94176.66;;;17.59;100.00
5879;BME280;2965;42.640;23.370;2023-06-14T04:26:48;94180.88;;;17.60;100.00
5879;BME280;2965;42.640;23.370;2023-06-14T04:29:14;94184.13;;;17.50;100.00
5879;BME280;2965;42.640;23.370;2023-06-14T04:31:45;94177.38;;;17.43;100.00
5879;BME280;2965;42.640;23.370;2023-06-14T04:34:10;94178.31;;;17.36;100.00
5879;BME280;2965;42.640;23.370;2023-06-14T04:36:41;94171.28;;;17.42;100.00
5879;BME280;2965;42.640;23.370;2023-06-14T04:39:08;94182.00;;;17.35;100.00
5879;BME280;2965;42.640;23.370;2023-06-14T04:41:33;94179.22;;;17.42;100.00
5879;BME280;2965;42.640;23.370;2023-06-14T04:44:00;94175.03;;;17.58;100.00
5879;BME280;2965;42.640;23.370;2023-06-14T04:46:29;94176.16;;;17.74;100.00
5879;BME280;2965;42.640;23.370;2023-06-14T04:48:55;94180.97;;;17.88;100.00
5879;BME280;2965;42.640;23.370;2023-06-14T04:51:21;94175.75;;;17.94;100.00
5879;BME280;2965;42.640;23.370;2023-06-14T04:53:57;94184.53;;;18.11;100.00
5879;BME280;2965;42.640;23.370;2023-06-14T04:56:26;94189.34;;;18.14;100.00
5879;BME280;2965;42.640;23.370;2023-06-14T04:58:51;94199.47;;;18.17;100.00
5879;BME280;2965;42.640;23.370;2023-06-14T05:01:18;94192.72;;;18.26;100.00
5879;BME280;2965;42.640;23.370;2023-06-14T05:03:45;94203.50;;;18.36;100.00
5879;BME280;2965;42.640;23.370;2023-06-14T05:06:13;94213.53;;;18.06;100.00
5879;BME280;2965;42.640;23.370;2023-06-14T05:08:39;94205.59;;;17.77;100.00
5879;BME280;2965;42.640;23.370;2023-06-14T05:11:04;94206.72;;;17.81;100.00
5879;BME280;2965;42.640;23.370;2023-06-14T05:13:30;94201.22;;;17.71;100.00
5879;BME280;2965;42.640;23.370;2023-06-14T05:15:58;94202.28;;;17.58;100.00
5879;BME280;2965;42.640;23.370;2023-06-14T05:18:24;94197.34;;;17.50;100.00
5879;BME280;2965;42.640;23.370;2023-06-14T05:20:50;94198.25;;;17.56;100.00
5879;BME280;2965;42.640;23.370;2023-06-14T05:23:16;94204.50;;;17.50;100.00
5879;BME280;2965;42.640;23.370;2023-06-14T05:25:42;94198.84;;;17.46;100.00
5879;BME280;2965;42.640;23.370;2023-06-14T05:28:08;94209.09;;;17.43;100.00
5879;BME280;2965;42.640;23.370;2023-06-14T05:30:33;94208.19;;;17.49;100.00
5879;BME280;2965;42.640;23.370;2023-06-14T05:32:59;94216.09;;;17.49;100.00
5879;BME280;2965;42.640;23.370;2023-06-14T05:35:24;94216.41;;;17.64;100.00
5879;BME280;2965;42.640;23.370;2023-06-14T05:37:52;94215.00;;;17.73;100.00
5879;BME280;2965;42.640;23.370;2023-06-14T05:40:17;94205.69;;;17.82;100.00
5879;BME280;2965;42.640;23.370;2023-06-14T05:42:43;94218.81;;;18.06;100.00
5879;BME280;2965;42.640;23.370;2023-06-14T05:45:09;94220.28;;;18.13;100.00
5879;BME280;2965;42.640;23.370;2023-06-14T05:47:35;94219.22;;;18.26;100.00
5879;BME280;2965;42.640;23.370;2023-06-14T05:50:00;94224.66;;;18.36;100.00
5879;BME280;2965;42.640;23.370;2023-06-14T05:52:25;94235.25;;;18.36;100.00
5879;BME280;2965;42.640;23.370;2023-06-14T05:54:51;94235.34;;;18.70;100.00
5879;BME280;2965;42.640;23.370;2023-06-14T05:57:17;94240.56;;;18.99;100.00
5879;BME280;2965;42.640;23.370;2023-06-14T05:59:42;94237.69;;;19.17;100.00
5879;BME280;2965;42.640;23.370;2023-06-14T06:02:08;94240.22;;;19.29;100.00
5879;BME280;2965;42.640;23.370;2023-06-14T06:04:33;94245.09;;;19.37;100.00
5879;BME280;2965;42.640;23.370;2023-06-14T06:06:58;94241.25;;;19.45;100.00
5879;BME280;2965;42.640;23.370;2023-06-14T06:09:24;94248.16;;;19.46;100.00
5879;BME280;2965;42.640;23.370;2023-06-14T06:11:49;94256.41;;;19.66;100.00
5879;BME280;2965;42.640;23.370;2023-06-14T06:14:14;94254.09;;;19.53;100.00
5879;BME280;2965;42.640;23.370;2023-06-14T06:16:40;94259.00;;;19.44;100.00
5879;BME280;2965;42.640;23.370;2023-06-14T06:19:05;94256.28;;;19.39;100.00
5879;BME280;2965;42.640;23.370;2023-06-14T06:21:30;94257.50;;;19.14;100.00
5879;BME280;2965;42.640;23.370;2023-06-14T06:23:56;94252.06;;;19.04;100.00
5879;BME280;2965;42.640;23.370;2023-06-14T06:26:22;94254.44;;;18.72;100.00
5879;BME280;2965;42.640;23.370;2023-06-14T06:28:48;94252.44;;;18.79;100.00
5879;BME280;2965;42.640;23.370;2023-06-14T06:31:13;94259.53;;;18.62;100.00
5879;BME280;2965;42.640;23.370;2023-06-14T06:33:39;94263.06;;;18.51;100.00
5879;BME280;2965;42.640;23.370;2023-06-14T06:36:05;94265.53;;;18.40;100.00
5879;BME280;2965;42.640;23.370;2023-06-14T06:38:30;94265.78;;;18.39;100.00
5879;BME280;2965;42.640;23.370;2023-06-14T06:40:56;94256.78;;;18.40;100.00
5879;BME280;2965;42.640;23.370;2023-06-14T06:43:22;94257.56;;;18.40;100.00
5879;BME280;2965;42.640;23.370;2023-06-14T06:45:47;94265.59;;;18.46;100.00
5879;BME280;2965;42.640;23.370;2023-06-14T06:48:13;94255.97;;;18.39;100.00
5879;BME280;2965;42.640;23.370;2023-06-14T06:50:38;94262.13;;;18.57;100.00
5879;BME280;2965;42.640;23.370;2023-06-14T06:53:04;94258.72;;;18.45;100.00
5879;BME280;2965;42.640;23.370;2023-06-14T06:55:30;94267.78;;;18.49;100.00
5879;BME280;2965;42.640;23.370;2023-06-14T06:57:56;94259.38;;;18.52;100.00
5879;BME280;2965;42.640;23.370;2023-06-14T10:34:58;94287.31;;;24.49;100.00
5879;BME280;2965;42.640;23.370;2023-06-14T10:37:24;94286.25;;;24.34;100.00
5879;BME280;2965;42.640;23.370;2023-06-14T10:39:52;94288.94;;;24.34;100.00
5879;BME280;2965;42.640;23.370;2023-06-14T10:42:20;94286.50;;;24.43;100.00
5879;BME280;2965;42.640;23.370;2023-06-14T10:44:54;94281.19;;;24.33;100.00
5879;BME280;2965;42.640;23.370;2023-06-14T10:47:30;94284.19;;;24.26;100.00
5879;BME280;2965;42.640;23.370;2023-06-14T10:50:07;94271.28;;;24.44;100.00
5879;BME280;2965;42.640;23.370;2023-06-14T10:52:43;94270.41;;;24.58;100.00
5879;BME280;2965;42.640;23.370;2023-06-14T10:55:15;94266.97;;;24.53;100.00
5879;BME280;2965;42.640;23.370;2023-06-14T10:57:45;94266.91;;;23.98;100.00
5879;BME280;2965;42.640;23.370;2023-06-14T11:00:13;94253.78;;;24.07;100.00
5879;BME280;2965;42.640;23.370;2023-06-14T11:05:27;94255.34;;;24.18;100.00
5879;BME280;2965;42.640;23.370;2023-06-14T11:08:15;94260.72;;;24.13;100.00
5879;BME280;2965;42.640;23.370;2023-06-14T11:10:44;94248.38;;;24.27;100.00
5879;BME280;2965;42.640;23.370;2023-06-14T11:13:13;94252.25;;;23.96;100.00
5879;BME280;2965;42.640;23.370;2023-06-14T11:15:45;94253.78;;;24.07;100.00
5879;BME280;2965;42.640;23.370;2023-06-14T11:18:11;94249.97;;;24.23;100.00
5879;BME280;2965;42.640;23.370;2023-06-14T11:20:37;94247.44;;;23.92;100.00
5879;BME280;2965;42.640;23.370;2023-06-14T11:23:03;94233.97;;;24.18;100.00
5879;BME280;2965;42.640;23.370;2023-06-14T11:25:29;94236.88;;;24.76;100.00
5879;BME280;2965;42.640;23.370;2023-06-14T11:27:56;94238.72;;;25.20;100.00
5879;BME280;2965;42.640;23.370;2023-06-14T11:30:22;94241.03;;;25.56;100.00
5879;BME280;2965;42.640;23.370;2023-06-14T11:32:49;94240.47;;;25.88;100.00
5879;BME280;2965;42.640;23.370;2023-06-14T11:35:16;94243.56;;;25.71;100.00
5879;BME280;2965;42.640;23.370;2023-06-14T11:37:42;94248.59;;;25.49;96.34
5879;BME280;2965;42.640;23.370;2023-06-14T11:40:10;94247.66;;;25.63;100.00
5879;BME280;2965;42.640;23.370;2023-06-14T11:42:37;94246.75;;;25.73;100.00
5879;BME280;2965;42.640;23.370;2023-06-14T11:45:04;94242.81;;;25.65;94.55
5879;BME280;2965;42.640;23.370;2023-06-14T11:47:34;94229.88;;;25.49;100.00
5879;BME280;2965;42.640;23.370;2023-06-14T11:50:00;94236.63;;;25.12;100.00
5879;BME280;2965;42.640;23.370;2023-06-14T11:52:25;94233.34;;;25.20;100.00
5879;BME280;2965;42.640;23.370;2023-06-14T11:54:51;94220.34;;;25.08;100.00
5879;BME280;2965;42.640;23.370;2023-06-14T11:57:20;94218.22;;;25.34;100.00
5879;BME280;2965;42.640;23.370;2023-06-14T11:59:46;94201.66;;;25.85;100.00
5879;BME280;2965;42.640;23.370;2023-06-14T12:02:18;94194.63;;;25.89;100.00
5879;BME280;2965;42.640;23.370;2023-06-14T12:04:46;94189.41;;;26.22;100.00
5879;BME280;2965;42.640;23.370;2023-06-14T12:07:13;94205.88;;;25.91;100.00
5879;BME280;2965;42.640;23.370;2023-06-14T12:12:17;94190.78;;;25.77;100.00
5879;BME280;2965;42.640;23.370;2023-06-14T12:14:42;94189.78;;;25.91;100.00
5879;BME280;2965;42.640;23.370;2023-06-14T12:17:08;94203.91;;;25.73;100.00
5879;BME280;2965;42.640;23.370;2023-06-14T12:19:41;94194.66;;;25.36;100.00
5879;BME280;2965;42.640;23.370;2023-06-14T12:22:10;94197.06;;;25.04;100.00
5879;BME280;2965;42.640;23.370;2023-06-14T12:24:35;94195.09;;;24.85;100.00
5879;BME280;2965;42.640;23.370;2023-06-14T12:27:01;94187.56;;;24.87;100.00
5879;BME280;2965;42.640;23.370;2023-06-14T12:29:30;94186.50;;;24.88;100.00
5879;BME280;2965;42.640;23.370;2023-06-14T12:31:56;94190.28;;;24.82;100.00
5879;BME280;2965;42.640;23.370;2023-06-14T12:34:26;94178.88;;;24.72;100.00
5879;BME280;2965;42.640;23.370;2023-06-14T12:36:55;94182.84;;;24.74;100.00
5879;BME280;2965;42.640;23.370;2023-06-14T12:39:21;94170.78;;;24.82;100.00
5879;BME280;2965;42.640;23.370;2023-06-14T12:41:47;94169.84;;;24.97;100.00
5879;BME280;2965;42.640;23.370;2023-06-14T12:44:13;94176.03;;;24.92;100.00
5879;BME280;2965;42.640;23.370;2023-06-14T12:46:39;94166.78;;;24.79;100.00
5879;BME280;2965;42.640;23.370;2023-06-14T12:49:07;94169.63;;;24.93;100.00
5879;BME280;2965;42.640;23.370;2023-06-14T12:51:33;94158.91;;;24.93;100.00
5879;BME280;2965;42.640;23.370;2023-06-14T12:53:58;94159.63;;;25.04;100.00
5879;BME280;2965;42.640;23.370;2023-06-14T12:56:24;94167.41;;;24.71;100.00
5879;BME280;2965;42.640;23.370;2023-06-14T12:58:49;94171.09;;;24.36;100.00
5879;BME280;2965;42.640;23.370;2023-06-14T13:01:15;94167.22;;;24.08;100.00
5879;BME280;2965;42.640;23.370;2023-06-14T13:03:40;94170.44;;;24.10;100.00
5879;BME280;2965;42.640;23.370;2023-06-14T13:06:05;94164.66;;;23.87;100.00
5879;BME280;2965;42.640;23.370;2023-06-14T13:08:31;94168.44;;;23.76;100.00
5879;BME280;2965;42.640;23.370;2023-06-14T13:10:56;94164.31;;;23.29;100.00
5879;BME280;2965;42.640;23.370;2023-06-14T13:13:23;94169.16;;;23.12;100.00
5879;BME280;2965;42.640;23.370;2023-06-14T13:15:48;94176.88;;;22.73;100.00
5879;BME280;2965;42.640;23.370;2023-06-14T13:18:15;94181.88;;;22.18;100.00
5879;BME280;2965;42.640;23.370;2023-06-14T13:20:41;94190.88;;;22.07;100.00
5879;BME280;2965;42.640;23.370;2023-06-14T13:23:06;94199.31;;;21.78;100.00
5879;BME280;2965;42.640;23.370;2023-06-14T13:25:33;94201.88;;;21.63;100.00
5879;BME280;2965;42.640;23.370;2023-06-14T13:27:59;94209.06;;;21.57;100.00
5879;BME280;2965;42.640;23.370;2023-06-14T13:30:24;94203.41;;;21.44;100.00
5879;BME280;2965;42.640;23.370;2023-06-14T13:32:50;94210.28;;;21.39;100.00
5879;BME280;2965;42.640;23.370;2023-06-14T13:35:19;94194.44;;;21.17;100.00
5879;BME280;2965;42.640;23.370;2023-06-14T13:37:45;94184.19;;;20.62;100.00
5879;BME280;2965;42.640;23.370;2023-06-14T13:40:11;94178.72;;;20.47;100.00
5879;BME280;2965;42.640;23.370;2023-06-14T13:42:36;94179.44;;;20.64;100.00
5879;BME280;2965;42.640;23.370;2023-06-14T13:45:03;94178.53;;;20.53;100.00
5879;BME280;2965;42.640;23.370;2023-06-14T13:47:29;94165.34;;;20.36;100.00
5879;BME280;2965;42.640;23.370;2023-06-14T13:49:55;94169.16;;;20.46;100.00
5879;BME280;2965;42.640;23.370;2023-06-14T13:52:21;94166.09;;;20.05;100.00
5879;BME280;2965;42.640;23.370;2023-06-14T13:54:46;94167.44;;;19.80;100.00
5879;BME280;2965;42.640;23.370;2023-06-14T13:57:12;94166.44;;;19.86;100.00
5879;BME280;2965;42.640;23.370;2023-06-14T13:59:40;94163.03;;;19.91;100.00
5879;BME280;2965;42.640;23.370;2023-06-14T14:02:07;94151.47;;;19.75;100.00
5879;BME280;2965;42.640;23.370;2023-06-14T14:04:34;94167.13;;;19.77;100.00
5879;BME280;2965;42.640;23.370;2023-06-14T14:07:03;94167.63;;;19.74;100.00
5879;BME280;2965;42.640;23.370;2023-06-14T14:09:28;94178.78;;;19.54;100.00
5879;BME280;2965;42.640;23.370;2023-06-14T14:11:54;94184.00;;;19.49;100.00
5879;BME280;2965;42.640;23.370;2023-06-14T14:14:19;94183.78;;;19.72;100.00
5879;BME280;2965;42.640;23.370;2023-06-14T14:16:45;94192.38;;;19.79;100.00
5879;BME280;2965;42.640;23.370;2023-06-14T14:19:10;94209.31;;;19.78;100.00
5879;BME280;2965;42.640;23.370;2023-06-14T14:21:36;94202.41;;;19.77;100.00
5879;BME280;2965;42.640;23.370;2023-06-14T14:24:01;94204.75;;;19.96;100.00
5879;BME280;2965;42.640;23.370;2023-06-14T14:26:26;94206.47;;;20.07;100.00
5879;BME280;2965;42.640;23.370;2023-06-14T14:28:52;94202.19;;;20.28;100.00
5879;BME280;2965;42.640;23.370;2023-06-14T14:31:18;94179.72;;;20.40;100.00
5879;BME280;2965;42.640;23.370;2023-06-14T14:33:43;94187.81;;;20.51;100.00
5879;BME280;2965;42.640;23.370;2023-06-14T14:36:09;94180.66;;;20.51;100.00
5879;BME280;2965;42.640;23.370;2023-06-14T14:38:34;94181.44;;;20.52;100.00
5879;BME280;2965;42.640;23.370;2023-06-14T14:40:59;94187.91;;;20.61;100.00
5879;BME280;2965;42.640;23.370;2023-06-14T14:43:25;94185.91;;;20.78;100.00
5879;BME280;2965;42.640;23.370;2023-06-14T14:45:52;94180.34;;;20.48;100.00
5879;BME280;2965;42.640;23.370;2023-06-14T14:48:17;94184.31;;;20.77;100.00
5879;BME280;2965;42.640;23.370;2023-06-14T14:50:43;94188.16;;;20.97;100.00
5879;BME280;2965;42.640;23.370;2023-06-14T14:53:08;94193.75;;;20.95;100.00
5879;BME280;2965;42.640;23.370;2023-06-14T14:55:33;94191.59;;;20.92;100.00
5879;BME280;2965;42.640;23.370;2023-06-14T14:58:01;94192.91;;;20.89;100.00
5879;BME280;2965;42.640;23.370;2023-06-14T15:00:27;94206.72;;;20.86;100.00
5879;BME280;2965;42.640;23.370;2023-06-14T15:02:53;94202.19;;;20.55;100.00
5879;BME280;2965;42.640;23.370;2023-06-14T15:05:18;94195.94;;;20.71;100.00
5879;BME280;2965;42.640;23.370;2023-06-14T15:07:43;94197.31;;;20.74;100.00
5879;BME280;2965;42.640;23.370;2023-06-14T15:10:11;94194.84;;;20.67;100.00
5879;BME280;2965;42.640;23.370;2023-06-14T15:12:36;94192.06;;;20.52;100.00
5879;BME280;2965;42.640;23.370;2023-06-14T15:15:02;94180.09;;;20.81;100.00
5879;BME280;2965;42.640;23.370;2023-06-14T15:17:28;94177.00;;;20.95;100.00
5879;BME280;2965;42.640;23.370;2023-06-14T15:19:53;94186.13;;;21.09;100.00
5879;BME280;2965;42.640;23.370;2023-06-14T15:22:19;94192.47;;;21.45;100.00
5879;BME280;2965;42.640;23.370;2023-06-14T15:24:45;94202.38;;;21.60;100.00
5879;BME280;2965;42.640;23.370;2023-06-14T15:27:12;94210.13;;;21.56;100.00
5879;BME280;2965;42.640;23.370;2023-06-14T15:29:38;94195.50;;;21.64;100.00
5879;BME280;2965;42.640;23.370;2023-06-14T15:32:05;94187.75;;;21.57;100.00
5879;BME280;2965;42.640;23.370;2023-06-14T15:34:31;94190.91;;;21.49;100.00
5879;BME280;2965;42.640;23.370;2023-06-14T15:36:56;94198.13;;;21.54;100.00
5879;BME280;2965;42.640;23.370;2023-06-14T15:39:22;94205.63;;;21.62;100.00
5879;BME280;2965;42.640;23.370;2023-06-14T15:41:49;94208.78;;;21.59;100.00
5879;BME280;2965;42.640;23.370;2023-06-14T15:44:15;94214.38;;;21.57;100.00
5879;BME280;2965;42.640;23.370;2023-06-14T15:46:40;94211.47;;;21.64;100.00
5879;BME280;2965;42.640;23.370;2023-06-14T15:49:08;94212.31;;;21.70;100.00
5879;BME280;2965;42.640;23.370;2023-06-14T15:51:34;94211.53;;;21.74;100.00
5879;BME280;2965;42.640;23.370;2023-06-14T15:54:00;94216.63;;;21.86;100.00
5879;BME280;2965;42.640;23.370;2023-06-14T15:56:25;94217.47;;;21.97;100.00
5879;BME280;2965;42.640;23.370;2023-06-14T15:58:50;94211.06;;;21.92;100.00
5879;BME280;2965;42.640;23.370;2023-06-14T16:01:16;94211.06;;;21.92;100.00
5879;BME280;2965;42.640;23.370;2023-06-14T16:03:41;94215.34;;;21.99;100.00
5879;BME280;2965;42.640;23.370;2023-06-14T16:06:06;94221.22;;;22.01;100.00
5879;BME280;2965;42.640;23.370;2023-06-14T16:08:32;94226.19;;;21.82;100.00
5879;BME280;2965;42.640;23.370;2023-06-14T16:10:57;94232.84;;;21.79;100.00
5879;BME280;2965;42.640;23.370;2023-06-14T16:13:22;94227.91;;;21.56;100.00
5879;BME280;2965;42.640;23.370;2023-06-14T16:15:48;94213.13;;;21.80;100.00
5879;BME280;2965;42.640;23.370;2023-06-14T16:18:14;94227.75;;;21.78;100.00
5879;BME280;2965;42.640;23.370;2023-06-14T16:20:39;94220.81;;;21.72;100.00
5879;BME280;2965;42.640;23.370;2023-06-14T16:23:05;94219.47;;;21.69;100.00
5879;BME280;2965;42.640;23.370;2023-06-14T16:25:30;94229.06;;;21.70;100.00
5879;BME280;2965;42.640;23.370;2023-06-14T16:27:55;94227.53;;;21.84;100.00
5879;BME280;2965;42.640;23.370;2023-06-14T16:30:21;94233.38;;;21.86;100.00
5879;BME280;2965;42.640;23.370;2023-06-14T16:32:46;94246.13;;;21.74;100.00
5879;BME280;2965;42.640;23.370;2023-06-14T16:35:12;94247.72;;;21.75;100.00
5879;BME280;2965;42.640;23.370;2023-06-14T16:37:37;94252.03;;;21.86;100.00
5879;BME280;2965;42.640;23.370;2023-06-14T16:40:03;94245.38;;;21.84;100.00
5879;BME280;2965;42.640;23.370;2023-06-14T16:42:28;94258.41;;;21.85;100.00
5879;BME280;2965;42.640;23.370;2023-06-14T16:44:54;94245.66;;;21.87;100.00
5879;BME280;2965;42.640;23.370;2023-06-14T16:47:19;94247.53;;;21.92;100.00
5879;BME280;2965;42.640;23.370;2023-06-14T16:49:45;94238.22;;;22.00;100.00
5879;BME280;2965;42.640;23.370;2023-06-14T16:52:10;94244.09;;;21.91;100.00
5879;BME280;2965;42.640;23.370;2023-06-14T16:54:36;94242.38;;;21.70;100.00
5879;BME280;2965;42.640;23.370;2023-06-14T16:57:01;94242.75;;;21.41;100.00
5879;BME280;2965;42.640;23.370;2023-06-14T16:59:27;94248.41;;;21.18;100.00
5879;BME280;2965;42.640;23.370;2023-06-14T17:01:52;94255.47;;;20.70;100.00
5879;BME280;2965;42.640;23.370;2023-06-14T17:04:18;94251.06;;;20.54;100.00
5879;BME280;2965;42.640;23.370;2023-06-14T17:06:43;94254.59;;;20.37;100.00
5879;BME280;2965;42.640;23.370;2023-06-14T17:09:09;94247.56;;;20.26;100.00
5879;BME280;2965;42.640;23.370;2023-06-14T17:11:34;94252.69;;;20.33;100.00
5879;BME280;2965;42.640;23.370;2023-06-14T17:14:00;94242.97;;;20.44;100.00
5879;BME280;2965;42.640;23.370;2023-06-14T17:16:26;94255.81;;;20.52;100.00
5879;BME280;2965;42.640;23.370;2023-06-14T17:18:52;94256.44;;;20.59;100.00
5879;BME280;2965;42.640;23.370;2023-06-14T17:21:17;94258.03;;;20.60;100.00
5879;BME280;2965;42.640;23.370;2023-06-14T17:23:42;94261.63;;;20.49;100.00
5879;BME280;2965;42.640;23.370;2023-06-14T17:26:08;94265.53;;;20.41;100.00
5879;BME280;2965;42.640;23.370;2023-06-14T17:28:34;94265.53;;;20.41;100.00
5879;BME280;2965;42.640;23.370;2023-06-14T17:31:01;94269.44;;;20.33;100.00
5879;BME280;2965;42.640;23.370;2023-06-14T17:33:26;94274.44;;;20.30;100.00
5879;BME280;2965;42.640;23.370;2023-06-14T17:35:52;94262.56;;;20.37;100.00
5879;BME280;2965;42.640;23.370;2023-06-14T17:38:17;94262.75;;;20.53;100.00
5879;BME280;2965;42.640;23.370;2023-06-14T17:40:42;94266.31;;;20.63;100.00
5879;BME280;2965;42.640;23.370;2023-06-14T17:43:08;94272.25;;;20.49;100.00
5879;BME280;2965;42.640;23.370;2023-06-14T17:45:33;94285.47;;;20.44;100.00
5879;BME280;2965;42.640;23.370;2023-06-14T17:47:59;94295.88;;;20.23;100.00
5879;BME280;2965;42.640;23.370;2023-06-14T17:50:26;94284.59;;;20.60;100.00
5879;BME280;2965;42.640;23.370;2023-06-14T17:52:51;94285.38;;;20.87;100.00
5879;BME280;2965;42.640;23.370;2023-06-14T17:55:16;94280.84;;;21.20;100.00
5879;BME280;2965;42.640;23.370;2023-06-14T17:57:42;94300.91;;;21.01;100.00
5879;BME280;2965;42.640;23.370;2023-06-14T18:00:07;94295.00;;;20.94;100.00
5879;BME280;2965;42.640;23.370;2023-06-14T18:02:33;94297.94;;;20.65;100.00
5879;BME280;2965;42.640;23.370;2023-06-14T18:04:58;94292.72;;;20.48;100.00
5879;BME280;2965;42.640;23.370;2023-06-14T18:07:24;94293.03;;;20.30;100.00
5879;BME280;2965;42.640;23.370;2023-06-14T18:09:49;94292.66;;;20.21;100.00
5879;BME280;2965;42.640;23.370;2023-06-14T18:12:15;94283.31;;;20.19;100.00
5879;BME280;2965;42.640;23.370;2023-06-14T18:14:40;94294.25;;;20.22;100.00
5879;BME280;2965;42.640;23.370;2023-06-14T18:17:05;94306.88;;;20.10;100.00
5879;BME280;2965;42.640;23.370;2023-06-14T18:19:31;94298.22;;;19.98;100.00
5879;BME280;2965;42.640;23.370;2023-06-14T18:21:56;94299.34;;;20.02;100.00
5879;BME280;2965;42.640;23.370;2023-06-14T18:24:22;94301.94;;;19.97;100.00
5879;BME280;2965;42.640;23.370;2023-06-14T18:26:48;94293.50;;;20.05;100.00
5879;BME280;2965;42.640;23.370;2023-06-14T18:29:14;94293.66;;;20.15;100.00
5879;BME280;2965;42.640;23.370;2023-06-14T18:31:40;94291.59;;;20.22;100.00
5879;BME280;2965;42.640;23.370;2023-06-14T18:34:06;94293.75;;;20.25;100.00
5879;BME280;2965;42.640;23.370;2023-06-14T18:36:33;94287.66;;;20.25;100.00
5879;BME280;2965;42.640;23.370;2023-06-14T18:38:58;94288.72;;;20.24;100.00
5879;BME280;2965;42.640;23.370;2023-06-14T18:41:24;94300.88;;;19.98;100.00
5879;BME280;2965;42.640;23.370;2023-06-14T18:43:49;94304.78;;;19.73;100.00
5879;BME280;2965;42.640;23.370;2023-06-14T18:46:15;94318.03;;;19.56;100.00
5879;BME280;2965;42.640;23.370;2023-06-14T18:48:40;94307.78;;;19.43;100.00
5879;BME280;2965;42.640;23.370;2023-06-14T18:51:08;94325.31;;;19.44;100.00
5879;BME280;2965;42.640;23.370;2023-06-14T18:53:33;94323.28;;;19.34;100.00
5879;BME280;2965;42.640;23.370;2023-06-14T18:55:59;94322.59;;;19.39;100.00
5879;BME280;2965;42.640;23.370;2023-06-14T18:58:24;94318.09;;;19.39;100.00
5879;BME280;2965;42.640;23.370;2023-06-14T19:00:50;94319.22;;;19.44;100.00
5879;BME280;2965;42.640;23.370;2023-06-14T19:49:39;94345.91;;;18.63;100.00
5879;BME280;2965;42.640;23.370;2023-06-14T19:52:05;94349.41;;;18.52;100.00
5879;BME280;2965;42.640;23.370;2023-06-14T19:54:30;94339.38;;;18.54;100.00
5879;BME280;2965;42.640;23.370;2023-06-14T19:56:56;94347.44;;;18.19;100.00
5879;BME280;2965;42.640;23.370;2023-06-14T19:59:21;94349.19;;;18.01;100.00
5879;BME280;2965;42.640;23.370;2023-06-14T20:01:47;94346.56;;;18.01;100.00
5879;BME280;2965;42.640;23.370;2023-06-14T20:04:12;94341.66;;;17.81;100.00
5879;BME280;2965;42.640;23.370;2023-06-14T20:06:37;94337.84;;;17.77;100.00
5879;BME280;2965;42.640;23.370;2023-06-14T20:09:03;94341.97;;;17.73;100.00
5879;BME280;2965;42.640;23.370;2023-06-14T20:11:36;94320.81;;;17.38;100.00
5879;BME280;2965;42.640;23.370;2023-06-14T20:14:01;94314.84;;;17.19;100.00
5879;BME280;2965;42.640;23.370;2023-06-14T20:16:27;94321.34;;;16.93;100.00
5879;BME280;2965;42.640;23.370;2023-06-14T20:18:52;94326.03;;;16.79;100.00
5879;BME280;2965;42.640;23.370;2023-06-14T20:21:18;94318.34;;;16.78;100.00
5879;BME280;2965;42.640;23.370;2023-06-14T20:23:44;94319.81;;;16.85;100.00
5879;BME280;2965;42.640;23.370;2023-06-14T20:26:09;94322.28;;;16.99;100.00
5879;BME280;2965;42.640;23.370;2023-06-14T20:28:34;94322.19;;;17.17;100.00
5879;BME280;2965;42.640;23.370;2023-06-14T20:31:00;94329.31;;;17.28;100.00
5879;BME280;2965;42.640;23.370;2023-06-14T20:33:25;94338.84;;;17.18;100.00
5879;BME280;2965;42.640;23.370;2023-06-14T20:35:50;94335.19;;;17.19;100.00
5879;BME280;2965;42.640;23.370;2023-06-14T20:38:16;94335.75;;;17.09;100.00
5879;BME280;2965;42.640;23.370;2023-06-14T20:40:42;94329.94;;;16.88;100.00
5879;BME280;2965;42.640;23.370;2023-06-14T20:43:08;94319.59;;;16.75;100.00
5879;BME280;2965;42.640;23.370;2023-06-14T20:45:36;94326.88;;;16.92;100.00
5879;BME280;2965;42.640;23.370;2023-06-14T20:48:01;94324.44;;;16.78;100.00
5879;BME280;2965;42.640;23.370;2023-06-14T20:50:27;94323.81;;;16.76;100.00
5879;BME280;2965;42.640;23.370;2023-06-14T20:52:52;94328.06;;;16.77;100.00
5879;BME280;2965;42.640;23.370;2023-06-14T20:55:18;94337.28;;;16.86;100.00
5879;BME280;2965;42.640;23.370;2023-06-14T20:57:44;94322.59;;;16.90;100.00
